PWSweather.com
Personal Weather Stations
Station Observations
RRFWEATHER
Rail Road Flat, Rail Road Flat, CA 95248

Rail Road FlatRail Road Flat, CA 95248

Lat: 38.306238, Lon: -120.514548

Elevation: 2808

Station Type: Davis Vantage Pro2

http://www.railroadflat.org

Latest ConditionsUpdated 8:40:01 PM PDT Sunday, May 19, 2019
Currently Today's Max Today's Min Today's Average
Temperature 41.8°F5.4°C 49.5°F9.7°C 34.4°F1.3°C 43.4°F6.3°C
Dew Point 37.9°F3.3°C 43.7°F6.5°C 32.6°F0.3°C 40.5°F4.7°C
Winds Calm Calm 12.7 mph -20.4 kmh - - 4.2 mph 6.8 kmh
Wind Gusts -- 18.4 mph29.6 kmh - -
Humidity 86% 96% 72% 90%
Pressure 29.85 in1010.8 mb 29.85 in1010.8 mb 29.69 in1005.4 mb -
Precipitation - 0.74 in18.8 mm - -
Hour Temp Dew Point Humidity Winds Wind Gusts Pressure Precip Precip Rate Daily Precip Total
08:40 PM 41.8°F5.4°C 37.9°F3.3°C 86% Calm Calm -- 29.85 in1010.8 mb - 0.00 in0.0 mm 0.74 in18.8 mm
08:35 PM 41.8°F5.4°C 37.9°F3.3°C 86% Calm Calm -- 29.84 in1010.5 mb - 0.00 in0.0 mm 0.74 in18.8 mm
08:30 PM 42.0°F5.6°C 38.1°F3.4°C 86% Calm Calm -- 29.84 in1010.5 mb - 0.00 in0.0 mm 0.74 in18.8 mm
08:25 PM 42.0°F5.6°C 38.1°F3.4°C 86% Calm Calm -- 29.84 in1010.5 mb - 0.00 in0.0 mm 0.74 in18.8 mm
08:20 PM 42.0°F5.6°C 38.4°F3.6°C 87% Calm Calm -- 29.84 in1010.5 mb - 0.00 in0.0 mm 0.74 in18.8 mm
08:15 PM 42.1°F5.6°C 38.2°F3.4°C 86% Calm Calm -- 29.84 in1010.5 mb - 0.00 in0.0 mm 0.74 in18.8 mm
08:10 PM 42.1°F5.6°C 38.2°F3.4°C 86% Calm Calm -- 29.84 in1010.5 mb - 0.00 in0.0 mm 0.74 in18.8 mm
08:00 PM 42.4°F5.8°C 38.5°F3.6°C 86% Calm Calm -- 29.84 in1010.5 mb - 0.00 in0.0 mm 0.74 in18.8 mm
07:55 PM 42.5°F5.8°C 38.6°F3.7°C 86% Calm Calm -- 29.84 in1010.5 mb - 0.00 in0.0 mm 0.74 in18.8 mm
07:50 PM 42.5°F5.8°C 38.3°F3.5°C 85% Calm Calm -- 29.83 in1010.2 mb - 0.00 in0.0 mm 0.74 in18.8 mm
07:45 PM 42.5°F5.8°C 38.6°F3.7°C 86% Calm Calm 2.3 mph3.7 kmh 29.83 in1010.2 mb - 0.00 in0.0 mm 0.74 in18.8 mm
07:40 PM 42.5°F5.8°C 38.3°F3.5°C 85% 1.2 mph ENE1.9 kmh ENE 2.3 mph3.7 kmh 29.83 in1010.2 mb - 0.00 in0.0 mm 0.74 in18.8 mm
07:35 PM 42.4°F5.8°C 38.5°F3.6°C 86% 2.3 mph ENE3.7 kmh ENE 3.5 mph5.6 kmh 29.83 in1010.2 mb - 0.00 in0.0 mm 0.74 in18.8 mm
07:30 PM 42.4°F5.8°C 38.8°F3.8°C 87% Calm Calm -- 29.83 in1010.2 mb - 0.00 in0.0 mm 0.74 in18.8 mm
07:25 PM 42.4°F5.8°C 39.4°F4.1°C 89% Calm Calm -- 29.83 in1010.2 mb - 0.00 in0.0 mm 0.74 in18.8 mm
07:20 PM 42.4°F5.8°C 39.1°F3.9°C 88% Calm Calm -- 29.83 in1010.2 mb - 0.00 in0.0 mm 0.74 in18.8 mm
07:15 PM 42.4°F5.8°C 39.4°F4.1°C 89% Calm Calm -- 29.83 in1010.2 mb - 0.01 in0.3 mm 0.74 in18.8 mm
07:10 PM 42.3°F5.7°C 39.3°F4.1°C 89% Calm Calm -- 29.83 in1010.2 mb - 0.01 in0.3 mm 0.74 in18.8 mm
07:00 PM 42.3°F5.7°C 39.6°F4.2°C 90% Calm Calm -- 29.83 in1010.2 mb - 0.01 in0.3 mm 0.74 in18.8 mm
06:55 PM 42.2°F5.7°C 39.7°F4.3°C 91% Calm Calm -- 29.83 in1010.2 mb - 0.01 in0.3 mm 0.74 in18.8 mm
06:50 PM 42.0°F5.6°C 39.3°F4.1°C 90% Calm Calm -- 29.83 in1010.2 mb - 0.01 in0.3 mm 0.74 in18.8 mm
06:45 PM 41.8°F5.4°C 38.5°F3.6°C 88% Calm Calm -- 29.83 in1010.2 mb - 0.01 in0.3 mm 0.74 in18.8 mm
06:40 PM 41.7°F5.4°C 38.7°F3.7°C 89% Calm Calm 3.5 mph5.6 kmh 29.83 in1010.2 mb - 0.01 in0.3 mm 0.74 in18.8 mm
06:35 PM 41.7°F5.4°C 38.7°F3.7°C 89% 2.3 mph SE3.7 kmh SE 3.5 mph5.6 kmh 29.83 in1010.2 mb - 0.01 in0.3 mm 0.74 in18.8 mm
06:30 PM 41.7°F5.4°C 38.4°F3.6°C 88% 2.3 mph SE3.7 kmh SE 4.6 mph7.4 kmh 29.83 in1010.2 mb - 0.01 in0.3 mm 0.74 in18.8 mm
06:25 PM 41.7°F5.4°C 38.4°F3.6°C 88% 2.3 mph SSE3.7 kmh SSE 4.6 mph7.4 kmh 29.83 in1010.2 mb - 0.01 in0.3 mm 0.74 in18.8 mm
06:20 PM 41.8°F5.4°C 38.3°F3.5°C 87% 4.6 mph SSE7.4 kmh SSE 8.1 mph13.0 kmh 29.83 in1010.2 mb - 0.01 in0.3 mm 0.74 in18.8 mm
06:15 PM 42.1°F5.6°C 38.5°F3.6°C 87% 4.6 mph SE7.4 kmh SE 9.2 mph14.8 kmh 29.83 in1010.2 mb - 0.01 in0.3 mm 0.74 in18.8 mm
06:10 PM 42.4°F5.8°C 38.5°F3.6°C 86% 6.9 mph S11.1 kmh S 11.5 mph18.5 kmh 29.82 in1009.8 mb - 0.00 in0.0 mm 0.73 in18.5 mm
06:00 PM 42.9°F6.1°C 39.0°F3.9°C 86% 5.8 mph SE9.3 kmh SE 9.2 mph14.8 kmh 29.82 in1009.8 mb - 0.00 in0.0 mm 0.73 in18.5 mm
05:55 PM 43.1°F6.2°C 39.1°F3.9°C 86% 4.6 mph SE7.4 kmh SE 9.2 mph14.8 kmh 29.82 in1009.8 mb - 0.00 in0.0 mm 0.73 in18.5 mm
05:50 PM 43.3°F6.3°C 39.1°F3.9°C 85% 5.8 mph SE9.3 kmh SE 10.4 mph16.7 kmh 29.82 in1009.8 mb - 0.00 in0.0 mm 0.73 in18.5 mm
05:45 PM 43.8°F6.6°C 39.0°F3.9°C 83% 6.9 mph SSE11.1 kmh SSE 10.4 mph16.7 kmh 29.82 in1009.8 mb - 0.00 in0.0 mm 0.73 in18.5 mm
05:40 PM 44.5°F6.9°C 39.0°F3.9°C 81% 8.1 mph S13.0 kmh S 11.5 mph18.5 kmh 29.82 in1009.8 mb - 0.01 in0.3 mm 0.73 in18.5 mm
05:35 PM 45.7°F7.6°C 39.6°F4.2°C 79% 6.9 mph S11.1 kmh S 11.5 mph18.5 kmh 29.82 in1009.8 mb - 0.01 in0.3 mm 0.73 in18.5 mm
05:30 PM 46.6°F8.1°C 39.4°F4.1°C 76% 5.8 mph SSE9.3 kmh SSE 10.4 mph16.7 kmh 29.81 in1009.5 mb - 0.01 in0.3 mm 0.73 in18.5 mm
05:25 PM 46.7°F8.2°C 39.9°F4.4°C 77% 4.6 mph SSE7.4 kmh SSE 10.4 mph16.7 kmh 29.81 in1009.5 mb - 0.01 in0.3 mm 0.73 in18.5 mm
05:20 PM 46.6°F8.1°C 40.7°F4.8°C 80% 3.5 mph SSE5.6 kmh SSE 5.8 mph9.3 kmh 29.81 in1009.5 mb - 0.01 in0.3 mm 0.73 in18.5 mm
05:15 PM 46.4°F8.0°C 39.9°F4.4°C 78% 5.8 mph S9.3 kmh S 9.2 mph14.8 kmh 29.81 in1009.5 mb - 0.01 in0.3 mm 0.73 in18.5 mm
05:10 PM 46.1°F7.8°C 40.6°F4.8°C 81% 1.2 mph S1.9 kmh S 3.5 mph5.6 kmh 29.81 in1009.5 mb - 0.01 in0.3 mm 0.73 in18.5 mm
05:00 PM 45.6°F7.6°C 40.4°F4.7°C 82% 1.2 mph SSE1.9 kmh SSE 4.6 mph7.4 kmh 29.81 in1009.5 mb - 0.01 in0.3 mm 0.73 in18.5 mm
04:55 PM 45.5°F7.5°C 39.4°F4.1°C 79% 1.2 mph S1.9 kmh S 3.5 mph5.6 kmh 29.81 in1009.5 mb - 0.01 in0.3 mm 0.73 in18.5 mm
04:50 PM 45.7°F7.6°C 39.6°F4.2°C 79% 2.3 mph SSE3.7 kmh SSE 3.5 mph5.6 kmh 29.82 in1009.8 mb - 0.01 in0.3 mm 0.73 in18.5 mm
04:45 PM 46.2°F7.9°C 39.0°F3.9°C 76% 3.5 mph S5.6 kmh S 4.6 mph7.4 kmh 29.82 in1009.8 mb - 0.01 in0.3 mm 0.73 in18.5 mm
04:40 PM 47.5°F8.6°C 40.0°F4.4°C 75% 8.1 mph SE13.0 kmh SE 11.5 mph18.5 kmh 29.82 in1009.8 mb - 0.00 in0.0 mm 0.72 in18.3 mm
04:35 PM 48.4°F9.1°C 39.8°F4.3°C 72% 6.9 mph S11.1 kmh S 11.5 mph18.5 kmh 29.82 in1009.8 mb - 0.00 in0.0 mm 0.72 in18.3 mm
04:30 PM 49.1°F9.5°C 40.5°F4.7°C 72% 6.9 mph SE11.1 kmh SE 11.5 mph18.5 kmh 29.82 in1009.8 mb - 0.00 in0.0 mm 0.72 in18.3 mm
04:25 PM 49.3°F9.6°C 40.7°F4.8°C 72% 6.9 mph S11.1 kmh S 10.4 mph16.7 kmh 29.82 in1009.8 mb - 0.00 in0.0 mm 0.72 in18.3 mm
04:20 PM 49.1°F9.5°C 40.5°F4.7°C 72% 6.9 mph SSE11.1 kmh SSE 9.2 mph14.8 kmh 29.82 in1009.8 mb - 0.00 in0.0 mm 0.72 in18.3 mm
04:15 PM 49.4°F9.7°C 40.7°F4.8°C 72% 5.8 mph SSW9.3 kmh SSW 11.5 mph18.5 kmh 29.82 in1009.8 mb - 0.00 in0.0 mm 0.72 in18.3 mm
04:10 PM 49.3°F9.6°C 42.0°F5.6°C 76% 6.9 mph SSE11.1 kmh SSE 10.4 mph16.7 kmh 29.82 in1009.8 mb - 0.00 in0.0 mm 0.72 in18.3 mm
04:00 PM 47.6°F8.7°C 40.4°F4.7°C 76% 4.6 mph S7.4 kmh S 6.9 mph11.1 kmh 29.82 in1009.8 mb - 0.00 in0.0 mm 0.72 in18.3 mm
03:55 PM 47.8°F8.8°C 39.9°F4.4°C 74% 5.8 mph SSE9.3 kmh SSE 10.4 mph16.7 kmh 29.82 in1009.8 mb - 0.00 in0.0 mm 0.72 in18.3 mm
03:50 PM 48.1°F8.9°C 40.5°F4.7°C 75% 5.8 mph SSE9.3 kmh SSE 9.2 mph14.8 kmh 29.82 in1009.8 mb - 0.00 in0.0 mm 0.72 in18.3 mm
03:45 PM 48.3°F9.1°C 40.4°F4.7°C 74% 6.9 mph SSE11.1 kmh SSE 10.4 mph16.7 kmh 29.82 in1009.8 mb - 0.00 in0.0 mm 0.72 in18.3 mm
03:40 PM 48.4°F9.1°C 40.8°F4.9°C 75% 6.9 mph SSE11.1 kmh SSE 10.4 mph16.7 kmh 29.82 in1009.8 mb - 0.00 in0.0 mm 0.72 in18.3 mm
03:35 PM 48.8°F9.3°C 40.9°F4.9°C 74% 6.9 mph SE11.1 kmh SE 12.7 mph20.4 kmh 29.82 in1009.8 mb - 0.00 in0.0 mm 0.72 in18.3 mm
03:25 PM 49.5°F9.7°C 42.2°F5.7°C 76% 5.8 mph SSW9.3 kmh SSW 8.1 mph13.0 kmh 29.81 in1009.5 mb - 0.00 in0.0 mm 0.72 in18.3 mm
03:20 PM 48.9°F9.4°C 42.4°F5.8°C 78% 6.9 mph SSE11.1 kmh SSE 12.7 mph20.4 kmh 29.82 in1009.8 mb - 0.00 in0.0 mm 0.72 in18.3 mm
03:15 PM 47.5°F8.6°C 42.0°F5.6°C 81% 5.8 mph SE9.3 kmh SE 10.4 mph16.7 kmh 29.81 in1009.5 mb - 0.00 in0.0 mm 0.72 in18.3 mm
03:10 PM 47.0°F8.3°C 41.1°F5.1°C 80% 6.9 mph SE11.1 kmh SE 10.4 mph16.7 kmh 29.81 in1009.5 mb - 0.00 in0.0 mm 0.72 in18.3 mm
02:55 PM 46.4°F8.0°C 41.2°F5.1°C 82% 4.6 mph SE7.4 kmh SE 10.4 mph16.7 kmh 29.81 in1009.5 mb - 0.00 in0.0 mm 0.72 in18.3 mm
02:50 PM 46.0°F7.8°C 40.8°F4.9°C 82% 5.8 mph SE9.3 kmh SE 8.1 mph13.0 kmh 29.81 in1009.5 mb - 0.00 in0.0 mm 0.72 in18.3 mm
02:45 PM 45.5°F7.5°C 41.0°F5.0°C 84% 6.9 mph SE11.1 kmh SE 8.1 mph13.0 kmh 29.80 in1009.1 mb - 0.00 in0.0 mm 0.72 in18.3 mm
02:40 PM 45.4°F7.4°C 39.9°F4.4°C 81% 9.2 mph SSE14.8 kmh SSE 11.5 mph18.5 kmh 29.80 in1009.1 mb - 0.00 in0.0 mm 0.72 in18.3 mm
02:35 PM 45.3°F7.4°C 39.8°F4.3°C 81% 8.1 mph SSE13.0 kmh SSE 11.5 mph18.5 kmh 29.80 in1009.1 mb - 0.00 in0.0 mm 0.72 in18.3 mm
02:30 PM 45.8°F7.7°C 40.9°F4.9°C 83% 8.1 mph SSE13.0 kmh SSE 18.4 mph29.6 kmh 29.80 in1009.1 mb - 0.01 in0.3 mm 0.72 in18.3 mm
02:25 PM 45.8°F7.7°C 40.6°F4.8°C 82% 6.9 mph SE11.1 kmh SE 11.5 mph18.5 kmh 29.80 in1009.1 mb - 0.01 in0.3 mm 0.72 in18.3 mm
02:20 PM 45.6°F7.6°C 41.3°F5.2°C 85% 6.9 mph SSE11.1 kmh SSE 9.2 mph14.8 kmh 29.80 in1009.1 mb - 0.01 in0.3 mm 0.72 in18.3 mm
02:15 PM 45.0°F7.2°C 40.8°F4.9°C 85% 6.9 mph SE11.1 kmh SE 11.5 mph18.5 kmh 29.81 in1009.5 mb - 0.01 in0.3 mm 0.72 in18.3 mm
02:10 PM 45.1°F7.3°C 41.1°F5.1°C 86% 6.9 mph SSE11.1 kmh SSE 11.5 mph18.5 kmh 29.81 in1009.5 mb - 0.01 in0.3 mm 0.72 in18.3 mm
02:00 PM 44.4°F6.9°C 40.8°F4.9°C 87% 5.8 mph SSE9.3 kmh SSE 11.5 mph18.5 kmh 29.81 in1009.5 mb - 0.02 in0.5 mm 0.72 in18.3 mm
01:55 PM 44.4°F6.9°C 41.0°F5.0°C 88% 8.1 mph S13.0 kmh S 11.5 mph18.5 kmh 29.81 in1009.5 mb - 0.02 in0.5 mm 0.72 in18.3 mm
01:50 PM 43.9°F6.6°C 41.4°F5.2°C 91% 5.8 mph SE9.3 kmh SE 10.4 mph16.7 kmh 29.81 in1009.5 mb - 0.02 in0.5 mm 0.72 in18.3 mm
01:45 PM 42.8°F6.0°C 40.7°F4.8°C 92% 5.8 mph SE9.3 kmh SE 11.5 mph18.5 kmh 29.81 in1009.5 mb - 0.02 in0.5 mm 0.72 in18.3 mm
01:40 PM 42.1°F5.6°C 39.9°F4.4°C 92% 4.6 mph SSE7.4 kmh SSE 6.9 mph11.1 kmh 29.81 in1009.5 mb - 0.03 in0.8 mm 0.72 in18.3 mm
01:35 PM 41.8°F5.4°C 39.9°F4.4°C 93% 5.8 mph SE9.3 kmh SE 8.1 mph13.0 kmh 29.82 in1009.8 mb - 0.04 in1.0 mm 0.72 in18.3 mm
01:30 PM 41.1°F5.1°C 39.8°F4.3°C 95% 3.5 mph SE5.6 kmh SE 4.6 mph7.4 kmh 29.81 in1009.5 mb - 0.04 in1.0 mm 0.71 in18.0 mm
01:25 PM 40.3°F4.6°C 39.2°F4.0°C 96% 3.5 mph SE5.6 kmh SE 5.8 mph9.3 kmh 29.82 in1009.8 mb - 0.06 in1.5 mm 0.71 in18.0 mm
01:20 PM 38.9°F3.8°C 37.9°F3.3°C 96% 3.5 mph SE5.6 kmh SE 5.8 mph9.3 kmh 29.81 in1009.5 mb - 0.07 in1.8 mm 0.71 in18.0 mm
01:15 PM 38.1°F3.4°C 36.8°F2.7°C 95% 1.2 mph ESE1.9 kmh ESE 3.5 mph5.6 kmh 29.81 in1009.5 mb - 0.08 in2.0 mm 0.71 in18.0 mm
01:10 PM 37.4°F3.0°C 36.3°F2.4°C 96% 1.2 mph E1.9 kmh E 3.5 mph5.6 kmh 29.81 in1009.5 mb - 0.09 in2.3 mm 0.71 in18.0 mm
01:00 PM 36.5°F2.5°C 35.2°F1.8°C 95% Calm Calm -- 29.82 in1009.8 mb - 0.14 in3.6 mm 0.71 in18.0 mm
12:55 PM 36.2°F2.3°C 34.9°F1.6°C 95% Calm Calm -- 29.81 in1009.5 mb - 0.14 in3.6 mm 0.70 in17.8 mm
12:50 PM 35.8°F2.1°C 34.5°F1.4°C 95% Calm Calm -- 29.82 in1009.8 mb - 0.14 in3.6 mm 0.70 in17.8 mm
12:45 PM 35.3°F1.8°C 34.1°F1.2°C 95% Calm Calm -- 29.82 in1009.8 mb - 0.14 in3.6 mm 0.70 in17.8 mm
12:40 PM 34.9°F1.6°C 33.7°F0.9°C 95% Calm Calm -- 29.82 in1009.8 mb - 0.15 in3.8 mm 0.69 in17.5 mm
12:35 PM 34.7°F1.5°C 33.2°F0.7°C 94% Calm Calm -- 29.82 in1009.8 mb - 0.15 in3.8 mm 0.68 in17.3 mm
12:30 PM 34.6°F1.4°C 33.0°F0.6°C 94% Calm Calm -- 29.82 in1009.8 mb - 0.16 in4.1 mm 0.67 in17.0 mm
12:25 PM 34.4°F1.3°C 32.9°F0.5°C 94% Calm Calm -- 29.82 in1009.8 mb - 0.16 in4.1 mm 0.65 in16.5 mm
12:20 PM 34.4°F1.3°C 32.6°F0.3°C 93% Calm Calm -- 29.82 in1009.8 mb - 0.17 in4.3 mm 0.64 in16.3 mm
12:15 PM 34.7°F1.5°C 33.1°F0.6°C 94% Calm Calm 2.3 mph3.7 kmh 29.82 in1009.8 mb - 0.18 in4.6 mm 0.63 in16.0 mm
12:10 PM 34.7°F1.5°C 32.9°F0.5°C 93% Calm Calm -- 29.81 in1009.5 mb - 0.18 in4.6 mm 0.62 in15.7 mm
12:00 PM 34.9°F1.6°C 33.1°F0.6°C 93% Calm Calm -- 29.81 in1009.5 mb - 0.14 in3.6 mm 0.57 in14.5 mm
11:55 AM 35.3°F1.8°C 33.2°F0.7°C 92% Calm Calm -- 29.81 in1009.5 mb - 0.15 in3.8 mm 0.56 in14.2 mm
11:50 AM 35.7°F2.1°C 33.6°F0.9°C 92% Calm Calm -- 29.81 in1009.5 mb - 0.16 in4.1 mm 0.56 in14.2 mm
11:45 AM 36.1°F2.3°C 34.3°F1.3°C 93% Calm Calm -- 29.82 in1009.8 mb - 0.17 in4.3 mm 0.56 in14.2 mm
11:40 AM 36.2°F2.3°C 34.4°F1.3°C 93% Calm Calm -- 29.82 in1009.8 mb - 0.17 in4.3 mm 0.55 in14.0 mm
11:35 AM 36.3°F2.4°C 34.5°F1.4°C 93% Calm Calm -- 29.81 in1009.5 mb - 0.15 in3.8 mm 0.53 in13.5 mm
11:30 AM 36.4°F2.4°C 34.6°F1.4°C 93% 1.2 mph W1.9 kmh W 2.3 mph3.7 kmh 29.81 in1009.5 mb - 0.14 in3.6 mm 0.51 in13.0 mm
11:25 AM 36.7°F2.6°C 34.9°F1.6°C 93% 1.2 mph WSW1.9 kmh WSW 5.8 mph9.3 kmh 29.81 in1009.5 mb - 0.12 in3.0 mm 0.49 in12.4 mm
11:20 AM 36.9°F2.7°C 35.1°F1.7°C 93% Calm Calm -- 29.80 in1009.1 mb - 0.10 in2.5 mm 0.47 in11.9 mm
11:15 AM 37.1°F2.8°C 35.5°F1.9°C 94% 2.3 mph W3.7 kmh W 3.5 mph5.6 kmh 29.80 in1009.1 mb - 0.09 in2.3 mm 0.46 in11.7 mm
11:10 AM 37.0°F2.8°C 35.5°F1.9°C 94% Calm Calm 1.2 mph1.9 kmh 29.80 in1009.1 mb - 0.07 in1.8 mm 0.44 in11.2 mm
11:00 AM 37.2°F2.9°C 35.4°F1.9°C 93% 2.3 mph SSE3.7 kmh SSE 3.5 mph5.6 kmh 29.79 in1008.8 mb - 0.06 in1.5 mm 0.43 in10.9 mm
10:55 AM 37.4°F3.0°C 35.6°F2.0°C 93% 5.8 mph W9.3 kmh W 11.5 mph18.5 kmh 29.79 in1008.8 mb - 0.05 in1.3 mm 0.42 in10.7 mm
10:50 AM 37.9°F3.3°C 36.0°F2.2°C 93% 4.6 mph W7.4 kmh W 8.1 mph13.0 kmh 29.79 in1008.8 mb - 0.03 in0.8 mm 0.40 in10.2 mm
10:45 AM 38.1°F3.4°C 36.3°F2.4°C 93% 3.5 mph W5.6 kmh W 5.8 mph9.3 kmh 29.79 in1008.8 mb - 0.02 in0.5 mm 0.39 in9.9 mm
10:40 AM 38.2°F3.4°C 36.4°F2.4°C 93% 3.5 mph W5.6 kmh W 6.9 mph11.1 kmh 29.78 in1008.5 mb - 0.01 in0.3 mm 0.38 in9.7 mm
10:35 AM 38.4°F3.6°C 36.5°F2.5°C 93% 5.8 mph W9.3 kmh W 9.2 mph14.8 kmh 29.77 in1008.1 mb - 0.01 in0.3 mm 0.38 in9.7 mm
10:30 AM 38.9°F3.8°C 36.8°F2.7°C 92% 6.9 mph WSW11.1 kmh WSW 10.4 mph16.7 kmh 29.77 in1008.1 mb - 0.00 in0.0 mm 0.37 in9.4 mm
10:25 AM 40.0°F4.4°C 37.3°F2.9°C 90% 10.4 mph W16.7 kmh W 18.4 mph29.6 kmh 29.76 in1007.8 mb - 0.00 in0.0 mm 0.37 in9.4 mm
10:20 AM 43.1°F6.2°C 39.2°F4.0°C 86% 8.1 mph W13.0 kmh W 16.1 mph25.9 kmh 29.75 in1007.5 mb - 0.00 in0.0 mm 0.37 in9.4 mm
10:15 AM 46.2°F7.9°C 42.9°F6.1°C 88% 3.5 mph SW5.6 kmh SW 9.2 mph14.8 kmh 29.75 in1007.5 mb - 0.00 in0.0 mm 0.37 in9.4 mm
10:10 AM 46.2°F7.9°C 43.1°F6.2°C 89% 3.5 mph SSW5.6 kmh SSW 4.6 mph7.4 kmh 29.75 in1007.5 mb - 0.00 in0.0 mm 0.37 in9.4 mm
10:00 AM 46.0°F7.8°C 42.0°F5.6°C 86% 4.6 mph SE7.4 kmh SE 8.1 mph13.0 kmh 29.74 in1007.1 mb - 0.01 in0.3 mm 0.37 in9.4 mm
09:55 AM 46.2°F7.9°C 41.6°F5.3°C 84% 3.5 mph S5.6 kmh S 4.6 mph7.4 kmh 29.74 in1007.1 mb - 0.01 in0.3 mm 0.37 in9.4 mm
09:50 AM 46.6°F8.1°C 42.0°F5.6°C 84% 6.9 mph SE11.1 kmh SE 10.4 mph16.7 kmh 29.74 in1007.1 mb - 0.01 in0.3 mm 0.37 in9.4 mm
09:45 AM 46.3°F7.9°C 42.7°F5.9°C 87% 4.6 mph SSE7.4 kmh SSE 9.2 mph14.8 kmh 29.74 in1007.1 mb - 0.01 in0.3 mm 0.37 in9.4 mm
09:40 AM 45.7°F7.6°C 42.3°F5.7°C 88% 2.3 mph S3.7 kmh S 4.6 mph7.4 kmh 29.74 in1007.1 mb - 0.01 in0.3 mm 0.37 in9.4 mm
09:35 AM 45.6°F7.6°C 42.2°F5.7°C 88% 2.3 mph SSE3.7 kmh SSE 5.8 mph9.3 kmh 29.75 in1007.5 mb - 0.01 in0.3 mm 0.37 in9.4 mm
09:30 AM 45.6°F7.6°C 41.9°F5.5°C 87% 3.5 mph S5.6 kmh S 4.6 mph7.4 kmh 29.74 in1007.1 mb - 0.01 in0.3 mm 0.37 in9.4 mm
09:25 AM 45.9°F7.7°C 42.6°F5.9°C 88% 3.5 mph SSE5.6 kmh SSE 6.9 mph11.1 kmh 29.74 in1007.1 mb - 0.01 in0.3 mm 0.37 in9.4 mm
09:20 AM 46.0°F7.8°C 42.9°F6.1°C 89% 2.3 mph SSE3.7 kmh SSE 3.5 mph5.6 kmh 29.74 in1007.1 mb - 0.01 in0.3 mm 0.37 in9.4 mm
09:15 AM 45.6°F7.6°C 43.4°F6.3°C 92% 2.3 mph SE3.7 kmh SE 3.5 mph5.6 kmh 29.74 in1007.1 mb - 0.01 in0.3 mm 0.37 in9.4 mm
09:10 AM 44.8°F7.1°C 42.3°F5.7°C 91% 2.3 mph SSW3.7 kmh SSW 3.5 mph5.6 kmh 29.74 in1007.1 mb - 0.01 in0.3 mm 0.37 in9.4 mm
09:00 AM 44.6°F7.0°C 43.0°F6.1°C 94% 2.3 mph S3.7 kmh S 4.6 mph7.4 kmh 29.73 in1006.8 mb - 0.00 in0.0 mm 0.36 in9.1 mm
08:55 AM 44.2°F6.8°C 42.3°F5.7°C 93% 1.2 mph WSW1.9 kmh WSW 3.5 mph5.6 kmh 29.73 in1006.8 mb - 0.00 in0.0 mm 0.36 in9.1 mm
08:50 AM 44.0°F6.7°C 41.8°F5.4°C 92% 2.3 mph SSE3.7 kmh SSE 3.5 mph5.6 kmh 29.73 in1006.8 mb - 0.00 in0.0 mm 0.36 in9.1 mm
08:45 AM 44.1°F6.7°C 42.5°F5.8°C 94% 1.2 mph W1.9 kmh W 3.5 mph5.6 kmh 29.73 in1006.8 mb - 0.00 in0.0 mm 0.36 in9.1 mm
08:40 AM 44.0°F6.7°C 42.4°F5.8°C 94% 2.3 mph S3.7 kmh S 3.5 mph5.6 kmh 29.73 in1006.8 mb - 0.00 in0.0 mm 0.36 in9.1 mm
08:35 AM 43.9°F6.6°C 42.3°F5.7°C 94% 3.5 mph S5.6 kmh S 5.8 mph9.3 kmh 29.73 in1006.8 mb - 0.00 in0.0 mm 0.36 in9.1 mm
08:30 AM 43.9°F6.6°C 42.3°F5.7°C 94% 2.3 mph SSW3.7 kmh SSW 4.6 mph7.4 kmh 29.73 in1006.8 mb - 0.00 in0.0 mm 0.36 in9.1 mm
08:25 AM 43.9°F6.6°C 42.3°F5.7°C 94% 1.2 mph S1.9 kmh S 2.3 mph3.7 kmh 29.72 in1006.4 mb - 0.00 in0.0 mm 0.36 in9.1 mm
08:20 AM 43.9°F6.6°C 42.3°F5.7°C 94% 1.2 mph SW1.9 kmh SW 2.3 mph3.7 kmh 29.73 in1006.8 mb - 0.00 in0.0 mm 0.36 in9.1 mm
08:15 AM 43.9°F6.6°C 42.3°F5.7°C 94% 2.3 mph SSE3.7 kmh SSE 3.5 mph5.6 kmh 29.73 in1006.8 mb - 0.00 in0.0 mm 0.36 in9.1 mm
08:10 AM 43.8°F6.6°C 42.2°F5.7°C 94% 1.2 mph S1.9 kmh S 3.5 mph5.6 kmh 29.73 in1006.8 mb - 0.00 in0.0 mm 0.36 in9.1 mm
08:00 AM 43.8°F6.6°C 42.2°F5.7°C 94% 2.3 mph S3.7 kmh S 3.5 mph5.6 kmh 29.72 in1006.4 mb - 0.00 in0.0 mm 0.36 in9.1 mm
07:55 AM 43.7°F6.5°C 42.4°F5.8°C 95% 2.3 mph SSE3.7 kmh SSE 4.6 mph7.4 kmh 29.72 in1006.4 mb - 0.00 in0.0 mm 0.36 in9.1 mm
07:50 AM 43.7°F6.5°C 42.4°F5.8°C 95% 1.2 mph S1.9 kmh S 3.5 mph5.6 kmh 29.72 in1006.4 mb - 0.00 in0.0 mm 0.36 in9.1 mm
07:45 AM 43.6°F6.4°C 42.3°F5.7°C 95% 1.2 mph SSW1.9 kmh SSW 2.3 mph3.7 kmh 29.72 in1006.4 mb - 0.00 in0.0 mm 0.36 in9.1 mm
07:40 AM 43.6°F6.4°C 42.3°F5.7°C 95% 3.5 mph S5.6 kmh S 5.8 mph9.3 kmh 29.72 in1006.4 mb - 0.01 in0.3 mm 0.36 in9.1 mm
07:35 AM 43.7°F6.5°C 42.4°F5.8°C 95% Calm Calm 2.3 mph3.7 kmh 29.72 in1006.4 mb - 0.02 in0.5 mm 0.36 in9.1 mm
07:30 AM 43.6°F6.4°C 42.3°F5.7°C 95% 1.2 mph SW1.9 kmh SW 3.5 mph5.6 kmh 29.72 in1006.4 mb - 0.03 in0.8 mm 0.36 in9.1 mm
07:25 AM 43.6°F6.4°C 42.3°F5.7°C 95% 4.6 mph SSW7.4 kmh SSW 6.9 mph11.1 kmh 29.72 in1006.4 mb - 0.03 in0.8 mm 0.36 in9.1 mm
07:20 AM 43.7°F6.5°C 42.4°F5.8°C 95% 4.6 mph SE7.4 kmh SE 6.9 mph11.1 kmh 29.72 in1006.4 mb - 0.04 in1.0 mm 0.36 in9.1 mm
07:15 AM 43.7°F6.5°C 42.3°F5.7°C 95% 2.3 mph S3.7 kmh S 4.6 mph7.4 kmh 29.71 in1006.1 mb - 0.04 in1.0 mm 0.36 in9.1 mm
07:10 AM 43.6°F6.4°C 42.3°F5.7°C 95% 4.6 mph SSE7.4 kmh SSE 6.9 mph11.1 kmh 29.71 in1006.1 mb - 0.04 in1.0 mm 0.36 in9.1 mm
07:00 AM 43.8°F6.6°C 42.4°F5.8°C 95% 2.3 mph S3.7 kmh S 3.5 mph5.6 kmh 29.71 in1006.1 mb - 0.04 in1.0 mm 0.36 in9.1 mm
06:55 AM 43.8°F6.6°C 42.2°F5.7°C 94% 5.8 mph S9.3 kmh S 6.9 mph11.1 kmh 29.71 in1006.1 mb - 0.04 in1.0 mm 0.36 in9.1 mm
06:50 AM 43.9°F6.6°C 42.6°F5.9°C 95% 3.5 mph S5.6 kmh S 8.1 mph13.0 kmh 29.71 in1006.1 mb - 0.04 in1.0 mm 0.36 in9.1 mm
06:45 AM 43.9°F6.6°C 42.3°F5.7°C 94% 4.6 mph S7.4 kmh S 8.1 mph13.0 kmh 29.71 in1006.1 mb - 0.04 in1.0 mm 0.36 in9.1 mm
06:40 AM 44.2°F6.8°C 42.8°F6.0°C 95% 3.5 mph S5.6 kmh S 6.9 mph11.1 kmh 29.70 in1005.8 mb - 0.03 in0.8 mm 0.35 in8.9 mm
06:35 AM 44.2°F6.8°C 42.9°F6.1°C 95% 5.8 mph S9.3 kmh S 12.7 mph20.4 kmh 29.70 in1005.8 mb - 0.02 in0.5 mm 0.34 in8.6 mm
06:30 AM 44.3°F6.8°C 43.0°F6.1°C 95% 4.6 mph S7.4 kmh S 8.1 mph13.0 kmh 29.70 in1005.8 mb - 0.01 in0.3 mm 0.33 in8.4 mm
06:25 AM 44.4°F6.9°C 43.0°F6.1°C 95% 3.5 mph S5.6 kmh S 4.6 mph7.4 kmh 29.70 in1005.8 mb - 0.01 in0.3 mm 0.33 in8.4 mm
06:20 AM 44.4°F6.9°C 43.1°F6.2°C 95% 3.5 mph SE5.6 kmh SE 6.9 mph11.1 kmh 29.70 in1005.8 mb - 0.00 in0.0 mm 0.32 in8.1 mm
06:15 AM 44.4°F6.9°C 43.0°F6.1°C 95% 6.9 mph SSE11.1 kmh SSE 12.7 mph20.4 kmh 29.70 in1005.8 mb - 0.00 in0.0 mm 0.32 in8.1 mm
06:10 AM 44.4°F6.9°C 43.1°F6.2°C 95% 6.9 mph S11.1 kmh S 10.4 mph16.7 kmh 29.70 in1005.8 mb - 0.00 in0.0 mm 0.32 in8.1 mm
06:00 AM 44.5°F6.9°C 43.1°F6.2°C 95% 5.8 mph S9.3 kmh S 10.4 mph16.7 kmh 29.70 in1005.8 mb - 0.00 in0.0 mm 0.32 in8.1 mm
05:55 AM 44.5°F6.9°C 43.1°F6.2°C 95% 6.9 mph SSE11.1 kmh SSE 10.4 mph16.7 kmh 29.70 in1005.8 mb - 0.00 in0.0 mm 0.32 in8.1 mm
05:50 AM 44.5°F6.9°C 43.2°F6.2°C 95% 6.9 mph SSE11.1 kmh SSE 10.4 mph16.7 kmh 29.70 in1005.8 mb - 0.01 in0.3 mm 0.32 in8.1 mm
05:45 AM 44.6°F7.0°C 43.0°F6.1°C 94% 8.1 mph S13.0 kmh S 11.5 mph18.5 kmh 29.70 in1005.8 mb - 0.01 in0.3 mm 0.32 in8.1 mm
05:40 AM 44.7°F7.1°C 43.1°F6.2°C 94% 6.9 mph S11.1 kmh S 12.7 mph20.4 kmh 29.70 in1005.8 mb - 0.01 in0.3 mm 0.32 in8.1 mm
05:35 AM 44.7°F7.1°C 43.1°F6.2°C 94% 6.9 mph SE11.1 kmh SE 10.4 mph16.7 kmh 29.70 in1005.8 mb - 0.02 in0.5 mm 0.32 in8.1 mm
05:30 AM 44.7°F7.1°C 43.4°F6.3°C 95% 9.2 mph S14.8 kmh S 12.7 mph20.4 kmh 29.70 in1005.8 mb - 0.02 in0.5 mm 0.32 in8.1 mm
05:25 AM 44.8°F7.1°C 43.5°F6.4°C 95% 5.8 mph SSE9.3 kmh SSE 9.2 mph14.8 kmh 29.70 in1005.8 mb - 0.03 in0.8 mm 0.32 in8.1 mm
05:20 AM 44.8°F7.1°C 43.4°F6.3°C 95% 5.8 mph SSE9.3 kmh SSE 10.4 mph16.7 kmh 29.70 in1005.8 mb - 0.03 in0.8 mm 0.32 in8.1 mm
05:15 AM 44.9°F7.2°C 43.5°F6.4°C 95% 6.9 mph SSE11.1 kmh SSE 13.8 mph22.2 kmh 29.70 in1005.8 mb - 0.03 in0.8 mm 0.32 in8.1 mm
05:10 AM 44.9°F7.2°C 43.5°F6.4°C 95% 6.9 mph SSE11.1 kmh SSE 9.2 mph14.8 kmh 29.70 in1005.8 mb - 0.03 in0.8 mm 0.32 in8.1 mm
05:00 AM 44.9°F7.2°C 43.6°F6.4°C 95% 5.8 mph SE9.3 kmh SE 9.2 mph14.8 kmh 29.70 in1005.8 mb - 0.03 in0.8 mm 0.32 in8.1 mm
04:55 AM 44.9°F7.2°C 43.6°F6.4°C 95% 6.9 mph SSE11.1 kmh SSE 11.5 mph18.5 kmh 29.70 in1005.8 mb - 0.03 in0.8 mm 0.32 in8.1 mm
04:50 AM 45.0°F7.2°C 43.7°F6.5°C 95% 5.8 mph S9.3 kmh S 11.5 mph18.5 kmh 29.70 in1005.8 mb - 0.04 in1.0 mm 0.32 in8.1 mm
04:45 AM 45.0°F7.2°C 43.7°F6.5°C 95% 4.6 mph SSE7.4 kmh SSE 5.8 mph9.3 kmh 29.70 in1005.8 mb - 0.03 in0.8 mm 0.31 in7.9 mm
04:40 AM 45.0°F7.2°C 43.7°F6.5°C 95% 5.8 mph S9.3 kmh S 5.8 mph9.3 kmh 29.70 in1005.8 mb - 0.03 in0.8 mm 0.31 in7.9 mm
04:35 AM 45.1°F7.3°C 43.7°F6.5°C 95% 10.4 mph SE16.7 kmh SE 13.8 mph22.2 kmh 29.70 in1005.8 mb - 0.02 in0.5 mm 0.30 in7.6 mm
04:30 AM 45.1°F7.3°C 43.4°F6.3°C 94% 9.2 mph SSE14.8 kmh SSE 13.8 mph22.2 kmh 29.70 in1005.8 mb - 0.02 in0.5 mm 0.30 in7.6 mm
04:25 AM 45.1°F7.3°C 43.4°F6.3°C 94% 9.2 mph SSE14.8 kmh SSE 12.7 mph20.4 kmh 29.69 in1005.4 mb - 0.01 in0.3 mm 0.29 in7.4 mm
04:20 AM 45.1°F7.3°C 43.5°F6.4°C 94% 9.2 mph SSE14.8 kmh SSE 15.0 mph24.1 kmh 29.69 in1005.4 mb - 0.01 in0.3 mm 0.29 in7.4 mm
04:15 AM 45.1°F7.3°C 43.4°F6.3°C 94% 11.5 mph SE18.5 kmh SE 16.1 mph25.9 kmh 29.69 in1005.4 mb - 0.02 in0.5 mm 0.29 in7.4 mm
04:10 AM 45.1°F7.3°C 43.4°F6.3°C 94% 12.7 mph SE20.4 kmh SE 17.3 mph27.8 kmh 29.69 in1005.4 mb - 0.03 in0.8 mm 0.29 in7.4 mm
04:00 AM 45.0°F7.2°C 43.4°F6.3°C 94% 6.9 mph SSE11.1 kmh SSE 13.8 mph22.2 kmh 29.69 in1005.4 mb - 0.04 in1.0 mm 0.29 in7.4 mm
03:55 AM 44.9°F7.2°C 43.3°F6.3°C 94% 10.4 mph SE16.7 kmh SE 18.4 mph29.6 kmh 29.69 in1005.4 mb - 0.04 in1.0 mm 0.29 in7.4 mm
03:50 AM 44.9°F7.2°C 43.3°F6.3°C 94% 6.9 mph SE11.1 kmh SE 15.0 mph24.1 kmh 29.70 in1005.8 mb - 0.03 in0.8 mm 0.28 in7.1 mm
03:45 AM 44.9°F7.2°C 43.3°F6.3°C 94% 6.9 mph S11.1 kmh S 11.5 mph18.5 kmh 29.70 in1005.8 mb - 0.04 in1.0 mm 0.28 in7.1 mm
03:40 AM 44.8°F7.1°C 43.2°F6.2°C 94% 8.1 mph SE13.0 kmh SE 10.4 mph16.7 kmh 29.70 in1005.8 mb - 0.04 in1.0 mm 0.28 in7.1 mm
03:35 AM 44.8°F7.1°C 42.9°F6.1°C 93% 5.8 mph SSE9.3 kmh SSE 9.2 mph14.8 kmh 29.70 in1005.8 mb - 0.04 in1.0 mm 0.28 in7.1 mm
03:30 AM 44.7°F7.1°C 42.8°F6.0°C 93% 5.8 mph SE9.3 kmh SE 9.2 mph14.8 kmh 29.70 in1005.8 mb - 0.04 in1.0 mm 0.28 in7.1 mm
03:25 AM 44.7°F7.1°C 42.8°F6.0°C 93% 8.1 mph SE13.0 kmh SE 10.4 mph16.7 kmh 29.70 in1005.8 mb - 0.04 in1.0 mm 0.28 in7.1 mm
03:20 AM 44.7°F7.1°C 42.8°F6.0°C 93% 8.1 mph SSE13.0 kmh SSE 11.5 mph18.5 kmh 29.70 in1005.8 mb - 0.04 in1.0 mm 0.28 in7.1 mm
03:15 AM 44.6°F7.0°C 43.0°F6.1°C 94% 10.4 mph SE16.7 kmh SE 16.1 mph25.9 kmh 29.71 in1006.1 mb - 0.05 in1.3 mm 0.27 in6.9 mm
03:10 AM 44.5°F6.9°C 42.9°F6.1°C 94% 6.9 mph SSE11.1 kmh SSE 10.4 mph16.7 kmh 29.71 in1006.1 mb - 0.06 in1.5 mm 0.26 in6.6 mm
03:00 AM 44.7°F7.1°C 43.1°F6.2°C 94% 4.6 mph SE7.4 kmh SE 8.1 mph13.0 kmh 29.71 in1006.1 mb - 0.09 in2.3 mm 0.25 in6.4 mm
02:55 AM 44.6°F7.0°C 43.0°F6.1°C 94% 6.9 mph SE11.1 kmh SE 11.5 mph18.5 kmh 29.71 in1006.1 mb - 0.11 in2.8 mm 0.25 in6.4 mm
02:50 AM 44.7°F7.1°C 43.1°F6.2°C 94% 5.8 mph SSE9.3 kmh SSE 8.1 mph13.0 kmh 29.71 in1006.1 mb - 0.13 in3.3 mm 0.25 in6.4 mm
02:45 AM 44.7°F7.1°C 43.1°F6.2°C 94% 5.8 mph SE9.3 kmh SE 11.5 mph18.5 kmh 29.72 in1006.4 mb - 0.13 in3.3 mm 0.24 in6.1 mm
02:40 AM 44.6°F7.0°C 43.3°F6.3°C 95% 6.9 mph SE11.1 kmh SE 13.8 mph22.2 kmh 29.72 in1006.4 mb - 0.14 in3.6 mm 0.24 in6.1 mm
02:35 AM 44.5°F6.9°C 43.2°F6.2°C 95% 6.9 mph SSE11.1 kmh SSE 11.5 mph18.5 kmh 29.72 in1006.4 mb - 0.16 in4.1 mm 0.24 in6.1 mm
02:30 AM 44.4°F6.9°C 43.1°F6.2°C 95% 8.1 mph SE13.0 kmh SE 11.5 mph18.5 kmh 29.72 in1006.4 mb - 0.16 in4.1 mm 0.24 in6.1 mm
02:25 AM 44.3°F6.8°C 42.9°F6.1°C 95% 6.9 mph SSE11.1 kmh SSE 11.5 mph18.5 kmh 29.72 in1006.4 mb - 0.18 in4.6 mm 0.24 in6.1 mm
02:20 AM 44.2°F6.8°C 42.9°F6.1°C 95% 3.5 mph SSE5.6 kmh SSE 8.1 mph13.0 kmh 29.72 in1006.4 mb - 0.18 in4.6 mm 0.24 in6.1 mm
02:15 AM 44.2°F6.8°C 42.6°F5.9°C 94% 4.6 mph S7.4 kmh S 6.9 mph11.1 kmh 29.72 in1006.4 mb - 0.17 in4.3 mm 0.22 in5.6 mm
02:10 AM 44.1°F6.7°C 42.5°F5.8°C 94% 5.8 mph SE9.3 kmh SE 8.1 mph13.0 kmh 29.73 in1006.8 mb - 0.15 in3.8 mm 0.20 in5.1 mm
02:00 AM 44.1°F6.7°C 42.5°F5.8°C 94% 3.5 mph SE5.6 kmh SE 4.6 mph7.4 kmh 29.73 in1006.8 mb - 0.11 in2.8 mm 0.16 in4.1 mm
01:55 AM 44.1°F6.7°C 42.5°F5.8°C 94% 3.5 mph SE5.6 kmh SE 6.9 mph11.1 kmh 29.73 in1006.8 mb - 0.10 in2.5 mm 0.14 in3.6 mm
01:50 AM 44.1°F6.7°C 42.5°F5.8°C 94% 5.8 mph SE9.3 kmh SE 5.8 mph9.3 kmh 29.73 in1006.8 mb - 0.09 in2.3 mm 0.13 in3.3 mm
01:45 AM 44.1°F6.7°C 42.5°F5.8°C 94% 4.6 mph SSE7.4 kmh SSE 9.2 mph14.8 kmh 29.73 in1006.8 mb - 0.07 in1.8 mm 0.11 in2.8 mm
01:40 AM 44.1°F6.7°C 42.2°F5.7°C 93% 4.6 mph SE7.4 kmh SE 8.1 mph13.0 kmh 29.73 in1006.8 mb - 0.07 in1.8 mm 0.10 in2.5 mm
01:35 AM 44.2°F6.8°C 42.3°F5.7°C 93% 4.6 mph SE7.4 kmh SE 8.1 mph13.0 kmh 29.73 in1006.8 mb - 0.06 in1.5 mm 0.09 in2.3 mm
01:30 AM 44.2°F6.8°C 42.3°F5.7°C 93% 4.6 mph SE7.4 kmh SE 9.2 mph14.8 kmh 29.74 in1007.1 mb - 0.05 in1.3 mm 0.08 in2.0 mm
01:25 AM 44.1°F6.7°C 42.2°F5.7°C 93% 4.6 mph SE7.4 kmh SE 8.1 mph13.0 kmh 29.73 in1006.8 mb - 0.04 in1.0 mm 0.06 in1.5 mm
01:20 AM 43.9°F6.6°C 42.1°F5.6°C 93% 6.9 mph SE11.1 kmh SE 8.1 mph13.0 kmh 29.73 in1006.8 mb - 0.04 in1.0 mm 0.06 in1.5 mm
01:15 AM 43.8°F6.6°C 42.1°F5.6°C 94% 5.8 mph SE9.3 kmh SE 10.4 mph16.7 kmh 29.73 in1006.8 mb - 0.04 in1.0 mm 0.05 in1.3 mm
01:10 AM 43.6°F6.4°C 41.7°F5.4°C 93% 4.6 mph SE7.4 kmh SE 8.1 mph13.0 kmh 29.74 in1007.1 mb - 0.04 in1.0 mm 0.05 in1.3 mm
01:00 AM 43.8°F6.6°C 41.9°F5.5°C 93% 3.5 mph SSE5.6 kmh SSE 4.6 mph7.4 kmh 29.74 in1007.1 mb - 0.05 in1.3 mm 0.05 in1.3 mm
12:55 AM 43.9°F6.6°C 42.0°F5.6°C 93% 3.5 mph ESE5.6 kmh ESE 3.5 mph5.6 kmh 29.74 in1007.1 mb - 0.05 in1.3 mm 0.05 in1.3 mm
12:50 AM 44.0°F6.7°C 41.8°F5.4°C 92% 3.5 mph E5.6 kmh E 4.6 mph7.4 kmh 29.74 in1007.1 mb - 0.04 in1.0 mm 0.04 in1.0 mm
12:45 AM 44.1°F6.7°C 41.9°F5.5°C 92% 3.5 mph E5.6 kmh E 6.9 mph11.1 kmh 29.74 in1007.1 mb - 0.04 in1.0 mm 0.04 in1.0 mm
12:40 AM 44.2°F6.8°C 42.0°F5.6°C 92% 3.5 mph SE5.6 kmh SE 6.9 mph11.1 kmh 29.75 in1007.5 mb - 0.03 in0.8 mm 0.03 in0.8 mm
12:35 AM 44.3°F6.8°C 41.8°F5.4°C 91% 5.8 mph SE9.3 kmh SE 8.1 mph13.0 kmh 29.75 in1007.5 mb - 0.03 in0.8 mm 0.03 in0.8 mm
12:30 AM 44.5°F6.9°C 42.0°F5.6°C 91% 4.6 mph SE7.4 kmh SE 10.4 mph16.7 kmh 29.75 in1007.5 mb - 0.03 in0.8 mm 0.03 in0.8 mm
12:25 AM 44.6°F7.0°C 41.9°F5.5°C 90% 4.6 mph SSE7.4 kmh SSE 9.2 mph14.8 kmh 29.75 in1007.5 mb - 0.02 in0.5 mm 0.02 in0.5 mm
12:20 AM 44.9°F7.2°C 41.9°F5.5°C 89% 2.3 mph S3.7 kmh S 4.6 mph7.4 kmh 29.75 in1007.5 mb - 0.02 in0.5 mm 0.02 in0.5 mm
12:15 AM 45.2°F7.3°C 41.9°F5.5°C 88% 3.5 mph S5.6 kmh S 4.6 mph7.4 kmh 29.75 in1007.5 mb - 0.02 in0.5 mm 0.02 in0.5 mm
12:10 AM 45.6°F7.6°C 41.7°F5.4°C 86% 3.5 mph SSE5.6 kmh SSE 6.9 mph11.1 kmh 29.75 in1007.5 mb - 0.01 in0.3 mm 0.01 in0.3 mm
12:00 AM 46.3°F7.9°C 41.4°F5.2°C 83% 4.6 mph SSE7.4 kmh SSE 8.1 mph13.0 kmh 29.75 in1007.5 mb - 0.00 in0.0 mm 0.00 in0.0 mm